createdAt,value
2024-04-14T11:01:46.474Z,4.00
2024-04-14T11:03:19.617Z,8.00
2024-04-14T11:04:51.968Z,8.00
2024-04-14T11:06:24.309Z,8.40
2024-04-14T11:07:56.588Z,8.00
2024-04-14T11:09:29.454Z,8.00
2024-04-14T11:11:01.781Z,7.40
2024-04-14T11:12:34.186Z,8.20
2024-04-14T11:14:06.414Z,7.00
2024-04-14T11:15:39.070Z,10.40
2024-04-14T11:17:14.353Z,6.20
2024-04-14T11:18:49.425Z,9.00
2024-04-14T11:20:21.768Z,6.00
2024-04-14T11:21:54.040Z,8.00
2024-04-14T11:23:27.644Z,9.40
2024-04-14T11:25:00.094Z,5.00
2024-04-14T11:26:32.590Z,8.20
2024-04-14T11:28:05.298Z,8.00
2024-04-14T11:29:37.668Z,9.00
2024-04-14T11:31:10.042Z,7.00
2024-04-14T11:32:42.583Z,9.00
2024-04-14T11:34:15.065Z,9.60
2024-04-14T11:35:47.270Z,5.00
2024-04-14T11:37:19.536Z,8.00
2024-04-14T11:38:51.805Z,8.20
2024-04-14T11:40:24.489Z,9.00
2024-04-14T11:41:56.707Z,11.40
2024-04-14T11:43:29.219Z,9.60
2024-04-14T11:45:02.228Z,9.60
2024-04-14T11:46:34.590Z,10.00
2024-04-14T11:48:07.133Z,9.00
2024-04-14T11:49:39.433Z,10.00
2024-04-14T11:51:12.416Z,11.00
2024-04-14T11:52:44.914Z,9.60
2024-04-14T11:54:17.168Z,9.20
2024-04-14T11:55:49.416Z,9.40
2024-04-14T11:57:22.930Z,10.00
2024-04-14T11:58:55.255Z,10.40
2024-04-14T12:00:28.286Z,8.80
2024-04-14T12:02:00.669Z,10.00
2024-04-14T12:03:32.929Z,10.00
2024-04-14T12:05:05.666Z,9.40
2024-04-14T12:06:41.140Z,11.60
2024-04-14T12:08:16.226Z,8.00
2024-04-14T12:09:49.083Z,8.00
2024-04-14T12:11:21.319Z,11.00
2024-04-14T12:12:53.851Z,8.60
2024-04-14T12:14:29.207Z,9.00
2024-04-14T12:16:01.850Z,8.40
2024-04-14T12:17:34.151Z,10.20
2024-04-14T12:19:08.562Z,9.00
2024-04-14T12:20:40.994Z,9.80
2024-04-14T12:22:13.411Z,5.20
2024-04-14T12:23:46.254Z,10.00
2024-04-14T12:25:21.309Z,9.40
2024-04-14T12:26:54.516Z,9.00
2024-04-14T12:28:26.853Z,9.20
2024-04-14T12:29:59.081Z,8.00
2024-04-14T12:31:31.547Z,9.00
2024-04-14T12:33:06.355Z,5.00
2024-04-14T12:34:38.738Z,10.00
2024-04-14T12:36:11.350Z,7.80
2024-04-14T12:37:45.031Z,9.20
2024-04-14T12:39:23.940Z,8.40
2024-04-14T12:41:02.217Z,9.60
2024-04-14T12:42:34.596Z,8.20
2024-04-14T12:44:06.970Z,9.20
2024-04-14T12:45:43.361Z,9.00
2024-04-14T12:47:15.680Z,9.80
2024-04-14T12:48:48.409Z,8.00
2024-04-14T12:50:28.891Z,10.00
2024-04-14T12:52:09.333Z,8.00
2024-04-14T12:53:41.647Z,8.00
2024-04-14T12:55:14.443Z,10.20
2024-04-14T12:56:46.747Z,7.60
2024-04-14T12:58:19.095Z,8.20
2024-04-14T12:59:51.497Z,10.40
2024-04-14T13:01:24.037Z,10.00
2024-04-14T13:02:56.442Z,10.00
2024-04-14T13:04:28.943Z,10.00
2024-04-14T13:06:02.329Z,7.80
2024-04-14T13:07:35.047Z,7.60
2024-04-14T13:09:07.348Z,9.00
2024-04-14T13:10:39.774Z,8.60
2024-04-14T13:12:12.063Z,9.40
2024-04-14T13:13:44.399Z,4.00
2024-04-14T13:15:16.699Z,8.00
2024-04-14T13:16:49.168Z,9.00
2024-04-14T13:18:21.557Z,8.00
2024-04-14T13:19:54.270Z,11.00
2024-04-14T13:21:26.739Z,9.80
2024-04-14T13:22:59.178Z,8.40
2024-04-14T13:24:31.642Z,8.20
2024-04-14T13:26:04.016Z,9.60
2024-04-14T13:27:36.635Z,13.00
2024-04-14T13:29:09.065Z,12.80
2024-04-14T13:30:41.476Z,11.20
2024-04-14T13:32:15.540Z,13.80
2024-04-14T13:33:48.169Z,14.20
2024-04-14T13:35:21.825Z,12.80
2024-04-14T13:36:55.675Z,16.60
2024-04-14T13:38:28.790Z,23.00
2024-04-14T13:40:01.280Z,22.60
2024-04-14T13:41:35.990Z,23.20
2024-04-14T13:43:08.377Z,23.20
2024-04-14T13:44:40.677Z,22.40
2024-04-14T13:46:13.143Z,35.00
2024-04-14T13:47:45.402Z,25.00
2024-04-14T13:49:18.069Z,23.60
2024-04-14T13:50:50.404Z,22.20
2024-04-14T13:52:32.515Z,24.20
2024-04-14T13:54:05.973Z,23.80
2024-04-14T13:55:38.371Z,24.20
2024-04-14T13:57:10.719Z,23.40
2024-04-14T13:58:43.017Z,22.60
2024-04-14T14:00:15.360Z,24.40
2024-04-14T14:01:47.944Z,25.20
2024-04-14T14:03:21.960Z,24.00
2024-04-14T14:04:54.355Z,24.00
2024-04-14T14:06:26.616Z,20.00
2024-04-14T14:07:59.032Z,24.40
2024-04-14T14:09:32.906Z,25.00
2024-04-14T14:11:05.609Z,28.20
2024-04-14T14:12:37.937Z,30.20
2024-04-14T14:14:10.415Z,28.40
2024-04-14T14:15:42.780Z,27.80
2024-04-14T14:17:16.487Z,32.00
2024-04-14T14:18:48.796Z,35.60
2024-04-14T14:20:21.270Z,36.20
2024-04-14T14:21:53.731Z,36.60
2024-04-14T14:23:26.072Z,35.20
2024-04-14T14:24:58.334Z,37.00
2024-04-14T14:26:30.690Z,39.20
2024-04-14T14:28:03.032Z,43.00
2024-04-14T14:29:35.884Z,42.00
2024-04-14T14:31:08.156Z,44.00
2024-04-14T14:32:41.502Z,40.25
2024-04-14T14:34:32.741Z,40.75
2024-04-14T14:36:24.655Z,41.50
2024-04-14T14:38:00.802Z,42.50
2024-04-14T14:39:36.303Z,38.75
2024-04-14T14:41:09.572Z,38.80
2024-04-14T14:42:42.234Z,39.25
2024-04-14T14:44:14.652Z,35.00
2024-04-14T14:45:47.079Z,33.40
2024-04-14T14:47:19.472Z,34.80
2024-04-14T14:48:59.182Z,32.20
2024-04-14T14:50:34.329Z,32.80
2024-04-14T14:52:07.107Z,34.40
2024-04-14T14:53:39.596Z,31.80
2024-04-14T14:55:12.075Z,33.00
2024-04-14T14:56:44.406Z,31.60
2024-04-14T14:58:16.862Z,33.20
2024-04-14T14:59:50.259Z,33.20
2024-04-14T15:01:22.969Z,28.20
2024-04-14T15:02:56.731Z,32.80
2024-04-14T15:04:30.570Z,31.20
2024-04-14T15:06:03.314Z,31.60
2024-04-14T15:07:37.520Z,31.80
2024-04-14T15:09:10.210Z,30.00
2024-04-14T15:10:52.676Z,31.80
2024-04-14T15:12:25.169Z,31.20
2024-04-14T15:13:57.422Z,28.20
2024-04-14T15:15:29.799Z,33.00
2024-04-14T15:17:02.129Z,31.00
2024-04-14T15:18:34.473Z,30.20
2024-04-14T15:20:07.496Z,31.20
2024-04-14T15:21:39.882Z,31.20
2024-04-14T15:23:12.131Z,32.80
2024-04-14T15:24:44.921Z,32.20
2024-04-14T15:26:17.340Z,31.80
2024-04-14T15:27:49.608Z,30.80
2024-04-14T15:29:26.615Z,31.20
2024-04-14T15:31:00.276Z,31.00
2024-04-14T15:32:32.670Z,31.20
2024-04-14T15:34:05.163Z,30.80
2024-04-14T15:35:37.473Z,32.20
2024-04-14T15:37:10.041Z,32.60
2024-04-14T15:38:42.336Z,30.20
2024-04-14T15:40:15.839Z,28.40
2024-04-14T15:41:48.283Z,29.60
2024-04-14T15:43:21.240Z,31.00
2024-04-14T15:44:53.515Z,31.00
2024-04-14T15:46:25.963Z,30.00
2024-04-14T15:47:58.634Z,30.00
2024-04-14T15:49:31.020Z,28.40
2024-04-14T15:51:13.647Z,32.00
2024-04-14T15:52:51.827Z,29.20
2024-04-14T15:54:24.031Z,31.20
2024-04-14T15:55:56.465Z,30.60
2024-04-14T15:57:35.721Z,31.80
2024-04-14T15:59:09.206Z,28.00
2024-04-14T16:00:41.506Z,28.20
2024-04-14T16:02:13.828Z,31.40
2024-04-14T16:03:46.415Z,31.80
2024-04-14T16:05:19.425Z,28.60
2024-04-14T16:06:51.926Z,30.60
2024-04-14T16:08:28.953Z,30.80
2024-04-14T16:10:03.045Z,33.00
2024-04-14T16:11:36.302Z,32.80
2024-04-14T16:13:10.072Z,31.20
2024-04-14T16:14:43.016Z,32.60
2024-04-14T16:16:15.600Z,32.20
2024-04-14T16:17:48.131Z,33.20
2024-04-14T16:19:20.523Z,31.00
2024-04-14T16:20:58.454Z,32.80
2024-04-14T16:22:30.820Z,35.00
2024-04-14T16:24:05.007Z,35.20
2024-04-14T16:25:37.531Z,37.60
2024-04-14T16:27:10.014Z,42.75
2024-04-14T16:28:42.664Z,37.25
2024-04-14T16:30:15.182Z,36.00
2024-04-14T16:31:47.436Z,40.40
2024-04-14T16:33:19.941Z,37.00
2024-04-14T16:34:52.916Z,54.25
2024-04-14T16:36:25.530Z,47.00
2024-04-14T16:37:57.900Z,49.50
2024-04-14T16:39:30.994Z,43.25
2024-04-14T16:41:03.325Z,46.00
2024-04-14T16:42:36.220Z,44.75
2024-04-14T16:44:09.102Z,44.50
2024-04-14T16:45:42.654Z,49.00
2024-04-14T16:47:16.008Z,51.00
2024-04-14T16:48:48.870Z,51.50
2024-04-14T16:50:21.486Z,50.25
2024-04-14T16:51:54.447Z,55.50
2024-04-14T16:53:26.972Z,56.50
2024-04-14T16:54:59.521Z,56.50
2024-04-14T16:56:31.914Z,57.00
2024-04-14T16:58:04.533Z,51.25
2024-04-14T16:59:37.816Z,63.50
2024-04-14T17:01:10.345Z,63.50
2024-04-14T17:02:43.109Z,64.75
2024-04-14T17:04:15.735Z,62.50
2024-04-14T17:05:49.506Z,64.75
2024-04-14T17:07:22.050Z,57.75
2024-04-14T17:08:57.129Z,63.75
2024-04-14T17:10:31.557Z,59.00
2024-04-14T17:12:07.981Z,63.00
2024-04-14T17:13:40.691Z,60.75
2024-04-14T17:15:14.746Z,59.75
2024-04-14T17:16:47.170Z,61.50
2024-04-14T17:18:19.550Z,60.75
2024-04-14T17:19:52.186Z,57.50
2024-04-14T17:21:24.602Z,52.75
2024-04-14T17:22:56.956Z,61.50
2024-04-14T17:24:30.805Z,57.00
2024-04-14T17:26:03.236Z,58.25
2024-04-14T17:27:35.589Z,49.50
2024-04-14T17:29:07.995Z,54.75
2024-04-14T17:30:40.291Z,60.75
2024-04-14T17:32:13.312Z,58.50
2024-04-14T17:33:48.411Z,63.50
2024-04-14T17:35:20.793Z,67.25
2024-04-14T17:36:53.150Z,62.75
2024-04-14T17:38:28.074Z,56.25
2024-04-14T17:40:05.578Z,59.00
2024-04-14T17:41:39.613Z,63.00
2024-04-14T17:43:12.132Z,60.00
2024-04-14T17:44:45.694Z,56.50
2024-04-14T17:46:18.034Z,60.50
2024-04-14T17:47:50.399Z,54.75
2024-04-14T17:49:23.398Z,53.25
2024-04-14T17:50:55.646Z,61.00
2024-04-14T17:52:27.948Z,75.75
2024-04-14T17:54:00.210Z,74.40
2024-04-14T17:55:34.657Z,73.80
2024-04-14T17:57:06.994Z,73.60
2024-04-14T17:58:39.372Z,73.75
2024-04-14T18:00:15.311Z,69.00
2024-04-14T18:01:47.763Z,68.00
2024-04-14T18:03:19.993Z,63.50
2024-04-14T18:04:52.375Z,60.25
2024-04-14T18:06:24.647Z,52.50
2024-04-14T18:07:57.007Z,52.00
2024-04-14T18:09:29.327Z,46.00
2024-04-14T18:11:01.720Z,64.25
2024-04-14T18:12:34.101Z,47.50
2024-04-14T18:14:06.691Z,52.25
2024-04-14T18:15:38.991Z,53.00
2024-04-14T18:17:13.239Z,55.75
2024-04-14T18:18:45.652Z,50.75
2024-04-14T18:20:18.288Z,59.25
2024-04-14T18:21:50.685Z,59.75
2024-04-14T18:23:23.080Z,48.00
2024-04-14T18:24:56.669Z,50.75
2024-04-14T18:26:30.015Z,50.75
2024-04-14T18:28:03.193Z,52.00
2024-04-14T18:29:35.550Z,57.00
2024-04-14T18:31:07.740Z,49.00
2024-04-14T18:32:40.161Z,57.00
2024-04-14T18:34:12.563Z,54.50
2024-04-14T18:36:14.420Z,55.50
2024-04-14T18:37:51.142Z,54.00
2024-04-14T18:39:23.527Z,53.75
2024-04-14T18:40:56.261Z,53.50
2024-04-14T18:42:28.594Z,51.00
2024-04-14T18:44:01.036Z,52.00
2024-04-14T18:45:33.496Z,52.25
2024-04-14T18:47:06.401Z,53.00
2024-04-14T18:48:41.180Z,60.00
2024-04-14T18:50:13.539Z,56.75
2024-04-14T18:51:46.718Z,56.75
2024-04-14T18:53:19.041Z,69.50
2024-04-14T18:54:51.243Z,61.50
2024-04-14T18:56:23.568Z,56.75
2024-04-14T18:57:55.892Z,71.40
2024-04-14T18:59:28.419Z,60.25
2024-04-14T19:01:04.253Z,61.50
2024-04-14T19:02:37.139Z,65.75
2024-04-14T19:04:09.639Z,63.25
2024-04-14T19:05:42.133Z,63.00
2024-04-14T19:07:17.376Z,60.00
2024-04-14T19:08:49.909Z,56.75
2024-04-14T19:10:22.434Z,59.25
2024-04-14T19:11:54.906Z,64.00
2024-04-14T19:13:27.202Z,62.75
2024-04-14T19:14:59.785Z,63.25
2024-04-14T19:16:33.881Z,60.75
2024-04-14T19:18:06.509Z,59.75
2024-04-14T19:19:38.815Z,53.00
2024-04-14T19:21:11.129Z,49.75
2024-04-14T19:22:43.538Z,52.25
2024-04-14T19:24:16.472Z,56.00
2024-04-14T19:25:50.736Z,51.00
2024-04-14T19:27:23.080Z,50.75
2024-04-14T19:28:55.512Z,43.75
2024-04-14T19:30:29.949Z,47.50
2024-04-14T19:32:02.513Z,44.25
2024-04-14T19:33:34.813Z,42.50
2024-04-14T19:35:07.628Z,47.75
2024-04-14T19:36:39.982Z,44.75
2024-04-14T19:38:13.511Z,46.25
2024-04-14T19:39:48.758Z,43.00
2024-04-14T19:41:21.208Z,41.25
2024-04-14T19:42:53.797Z,45.75
2024-04-14T19:44:26.067Z,47.25
2024-04-14T19:45:58.980Z,44.75
2024-04-14T19:47:31.447Z,42.75
2024-04-14T19:49:03.707Z,38.60
2024-04-14T19:50:35.958Z,42.75
2024-04-14T19:52:08.353Z,38.75
2024-04-14T19:53:40.656Z,37.40
2024-04-14T19:55:13.239Z,39.75
2024-04-14T19:56:46.333Z,39.25
2024-04-14T19:58:18.671Z,51.25
2024-04-14T19:59:53.655Z,48.00
2024-04-14T20:01:26.145Z,41.50
2024-04-14T20:02:58.468Z,35.75
2024-04-14T20:04:30.842Z,36.20
2024-04-14T20:06:03.124Z,43.50
2024-04-14T20:07:35.478Z,43.25
2024-04-14T20:09:09.774Z,43.75
2024-04-14T20:10:43.621Z,39.00
2024-04-14T20:12:15.891Z,42.75
2024-04-14T20:13:48.460Z,39.00
2024-04-14T20:15:24.209Z,31.20
2024-04-14T20:16:56.552Z,32.00
2024-04-14T20:18:28.949Z,31.40
2024-04-14T20:20:01.464Z,32.80
2024-04-14T20:21:34.794Z,40.25
2024-04-14T20:23:07.190Z,50.75
2024-04-14T20:24:39.556Z,54.00
2024-04-14T20:26:12.054Z,54.00
2024-04-14T20:27:44.353Z,58.50
2024-04-14T20:29:16.740Z,63.75
2024-04-14T20:30:49.014Z,53.25
2024-04-14T20:32:21.483Z,57.00
2024-04-14T20:33:53.793Z,55.75
2024-04-14T20:35:26.214Z,50.50
2024-04-14T20:36:58.432Z,56.25
2024-04-14T20:38:30.873Z,53.25
2024-04-14T20:40:03.239Z,51.50
2024-04-14T20:41:35.717Z,46.25
2024-04-14T20:43:08.002Z,56.50
2024-04-14T20:44:40.351Z,56.75
2024-04-14T20:46:12.591Z,59.25
2024-04-14T20:47:44.953Z,63.50
2024-04-14T20:49:17.609Z,62.75
2024-04-14T20:50:52.817Z,51.25
2024-04-14T20:52:25.075Z,54.00
2024-04-14T20:53:58.850Z,58.25
2024-04-14T20:55:32.394Z,58.75
2024-04-14T20:57:04.809Z,55.00
2024-04-14T20:58:37.642Z,55.50
2024-04-14T21:00:10.486Z,55.00
2024-04-14T21:01:42.788Z,57.00
2024-04-14T21:03:15.093Z,60.25
2024-04-14T21:04:50.362Z,58.25
2024-04-14T21:06:23.485Z,51.75
2024-04-14T21:07:55.990Z,58.25
2024-04-14T21:09:28.254Z,61.25
2024-04-14T21:11:04.916Z,55.50
2024-04-14T21:12:37.541Z,54.75
2024-04-14T21:14:09.829Z,57.75
2024-04-14T21:15:42.214Z,57.50
2024-04-14T21:17:14.467Z,59.25
2024-04-14T21:18:46.929Z,58.00
2024-04-14T21:20:20.628Z,58.25
2024-04-14T21:21:52.971Z,61.75
2024-04-14T21:23:25.268Z,55.75
2024-04-14T21:24:57.738Z,55.50
2024-04-14T21:26:29.952Z,60.25
2024-04-14T21:28:02.511Z,57.25
2024-04-14T21:29:35.867Z,53.00
2024-04-14T21:31:08.368Z,61.75
2024-04-14T21:32:40.743Z,61.50
2024-04-14T21:34:14.155Z,76.40
2024-04-14T21:35:46.570Z,68.00
2024-04-14T21:37:19.024Z,62.75
2024-04-14T21:38:51.523Z,71.60
2024-04-14T21:40:23.796Z,72.20
2024-04-14T21:41:56.160Z,75.00
2024-04-14T21:43:28.471Z,72.75
2024-04-14T21:45:00.962Z,76.80
2024-04-14T21:46:33.400Z,75.80
2024-04-14T21:48:06.182Z,73.00
2024-04-14T21:49:39.359Z,76.40
2024-04-14T21:51:12.335Z,73.40
2024-04-14T21:52:45.535Z,74.20
2024-04-14T21:54:17.869Z,103.75
2024-04-14T21:56:00.508Z,78.00
2024-04-14T21:57:32.874Z,76.20
2024-04-14T21:59:05.097Z,76.20
2024-04-14T22:00:37.488Z,71.25
2024-04-14T22:02:09.818Z,70.50
2024-04-14T22:03:43.628Z,67.00
2024-04-14T22:05:16.144Z,66.00
2024-04-14T22:06:48.528Z,68.40
2024-04-14T22:08:21.147Z,70.60
2024-04-14T22:09:53.579Z,74.00
2024-04-14T22:11:25.838Z,68.60
2024-04-14T22:12:58.221Z,65.50
2024-04-14T22:14:30.549Z,69.25
2024-04-14T22:16:02.954Z,64.25
2024-04-14T22:17:35.298Z,66.50
2024-04-14T22:19:08.483Z,62.50
2024-04-14T22:20:40.802Z,58.75
2024-04-14T22:22:13.194Z,60.50
2024-04-14T22:23:45.578Z,63.25
2024-04-14T22:25:17.904Z,63.50
2024-04-14T22:26:50.211Z,56.25
2024-04-14T22:28:22.575Z,58.25
2024-04-14T22:29:54.784Z,60.50
2024-04-14T22:31:27.474Z,59.50
2024-04-14T22:32:59.769Z,59.75
2024-04-14T22:34:32.290Z,56.50
